Time;durP1;ratioP1;P1;durP2;ratioP2;P2;SDS_P1;SDS_P2;PMS_P1;PMS_P2;Temp;Humidity;BMP_temperature;BMP_pressure;BME280_temperature;BME280_humidity;BME280_pressure;Samples;Min_cycle;Max_cycle;Signal;HPM_P1;HPM_P2
2022/04/24 00:00:05;;;;;;;9.75;7.85;;;;;;;11.12;66.89;94468.06;5034299;28;20197;-65
2022/04/24 00:02:33;;;;;;;8.75;7.75;;;;;;;11.00;66.42;94452.50;5017619;28;20205;-65
2022/04/24 00:05:01;;;;;;;12.20;8.40;;;;;;;10.95;66.64;94452.81;5017752;28;20214;-65
2022/04/24 00:07:31;;;;;;;8.68;7.78;;;;;;;10.90;67.58;94453.16;5034728;28;20202;-65
2022/04/24 00:09:58;;;;;;;9.40;8.40;;;;;;;10.92;67.60;94453.56;5033597;28;20190;-65
2022/04/24 00:12:26;;;;;;;9.70;7.90;;;;;;;10.94;67.54;94451.25;5017190;28;20201;-65
2022/04/24 00:14:54;;;;;;;8.10;7.30;;;;;;;10.87;67.06;94457.44;5034323;28;20591;-65
2022/04/24 00:17:22;;;;;;;9.05;7.93;;;;;;;10.82;67.70;94453.03;5034550;28;20191;-65
2022/04/24 00:19:50;;;;;;;11.13;8.00;;;;;;;10.83;67.38;94462.91;5016961;28;20206;-65
2022/04/24 00:22:17;;;;;;;8.10;7.05;;;;;;;10.81;67.07;94458.91;5033813;28;20221;-65
2022/04/24 00:24:47;;;;;;;9.70;7.88;;;;;;;10.80;67.83;94457.31;5017235;28;20234;-65
2022/04/24 00:27:16;;;;;;;8.43;7.07;;;;;;;10.79;67.70;94455.72;5017456;28;20199;-65
2022/04/24 00:29:44;;;;;;;8.98;7.68;;;;;;;10.71;67.27;94456.75;5034467;28;20179;-65
2022/04/24 00:32:11;;;;;;;8.15;7.10;;;;;;;10.61;67.23;94463.72;5026428;28;20203;-65
2022/04/24 00:34:39;;;;;;;8.90;7.22;;;;;;;10.49;67.49;94469.38;5034805;28;20195;-65
2022/04/24 00:37:07;;;;;;;10.10;7.60;;;;;;;10.41;67.62;94468.47;5035055;28;20186;-65
2022/04/24 00:39:36;;;;;;;8.60;6.72;;;;;;;10.37;67.75;94464.84;5020936;28;20198;-65
2022/04/24 00:42:09;;;;;;;9.57;7.30;;;;;;;10.36;68.13;94466.81;5037182;28;20201;-65
2022/04/24 00:44:36;;;;;;;8.77;6.82;;;;;;;10.34;67.58;94465.56;5036725;28;20194;-65
2022/04/24 00:47:11;;;;;;;8.63;6.82;;;;;;;10.34;68.32;94460.06;5038028;28;20190;-65
2022/04/24 00:49:41;;;;;;;9.75;6.97;;;;;;;10.36;67.70;94461.28;5020865;28;20260;-65
2022/04/24 00:52:09;;;;;;;8.88;6.85;;;;;;;10.35;67.81;94459.72;5037610;28;20194;-65
2022/04/24 00:54:38;;;;;;;8.45;6.55;;;;;;;10.38;67.84;94460.91;5037770;28;20205;-65
2022/04/24 00:57:10;;;;;;;8.82;7.47;;;;;;;10.32;67.90;94465.94;5037961;28;20182;-65
2022/04/24 00:59:39;;;;;;;8.07;6.80;;;;;;;10.31;68.15;94469.88;5020181;28;20198;-65
2022/04/24 01:02:06;;;;;;;8.45;6.30;;;;;;;10.34;68.16;94476.59;5020143;28;20285;-65
2022/04/24 01:04:35;;;;;;;7.15;6.45;;;;;;;10.31;67.73;94477.31;5037615;28;20186;-65
2022/04/24 01:07:03;;;;;;;9.40;6.93;;;;;;;10.20;67.81;94474.34;5037405;28;20298;-65
2022/04/24 01:09:33;;;;;;;7.07;6.38;;;;;;;10.22;68.22;94483.06;5037621;28;20186;-65
2022/04/24 01:12:00;;;;;;;9.25;7.20;;;;;;;10.24;68.80;94469.72;5020041;28;20202;-65
2022/04/24 01:14:30;;;;;;;7.60;6.75;;;;;;;10.24;67.87;94480.75;5020082;28;20207;-65
2022/04/24 01:16:58;;;;;;;8.40;6.10;;;;;;;10.26;68.62;94480.38;5019900;28;20298;-65
2022/04/24 01:19:27;;;;;;;7.70;6.10;;;;;;;10.28;68.69;94483.59;5019815;28;20198;-65
2022/04/24 01:21:57;;;;;;;7.72;5.40;;;;;;;10.23;68.28;94479.13;5020153;28;20205;-65
2022/04/24 01:24:28;;;;;;;7.28;5.05;;;;;;;10.20;68.25;94484.56;5029210;28;20253;-65
2022/04/24 01:26:56;;;;;;;7.30;5.30;;;;;;;10.22;68.18;94491.31;5019448;28;20218;-65
2022/04/24 01:29:25;;;;;;;7.00;5.25;;;;;;;10.25;68.41;94492.56;5036391;28;20194;-65
2022/04/24 01:31:53;;;;;;;7.68;5.70;;;;;;;10.27;68.63;94491.03;5037211;28;20206;-65
2022/04/24 01:34:21;;;;;;;7.82;6.70;;;;;;;10.22;68.20;94496.81;5036840;28;20510;-65
2022/04/24 01:36:50;;;;;;;8.38;6.00;;;;;;;10.21;68.38;94495.25;5019763;28;20195;-65
2022/04/24 01:39:20;;;;;;;6.55;5.43;;;;;;;10.19;68.52;94492.03;5019645;28;20249;-65
2022/04/24 01:41:48;;;;;;;7.10;5.85;;;;;;;10.20;68.31;94492.84;5037147;28;20183;-65
2022/04/24 01:44:16;;;;;;;8.45;5.97;;;;;;;10.22;68.42;94501.56;5019549;28;20314;-65
2022/04/24 01:46:43;;;;;;;8.00;5.78;;;;;;;10.21;68.28;94495.25;5036215;28;20225;-65
2022/04/24 01:49:11;;;;;;;7.00;6.32;;;;;;;10.17;67.59;94493.56;5018926;28;20509;-65
2022/04/24 01:51:40;;;;;;;7.68;6.28;;;;;;;10.02;67.68;94500.75;5019648;28;20195;-65
2022/04/24 01:54:06;;;;;;;7.70;6.82;;;;;;;9.95;67.54;94501.44;5036834;28;20261;-65
2022/04/24 01:56:36;;;;;;;7.60;6.60;;;;;;;9.87;67.88;94503.22;5036089;28;20199;-65
2022/04/24 01:59:05;;;;;;;7.25;6.55;;;;;;;9.81;68.34;94496.41;5036415;28;20774;-65
2022/04/24 02:01:32;;;;;;;8.63;6.68;;;;;;;9.74;68.38;94504.53;5036639;28;20198;-65
2022/04/24 02:03:59;;;;;;;8.52;6.72;;;;;;;9.65;68.74;94496.47;5036615;28;20190;-65
2022/04/24 02:06:28;;;;;;;7.47;6.78;;;;;;;9.67;68.73;94495.31;5036463;28;20207;-65
2022/04/24 02:08:54;;;;;;;7.18;6.50;;;;;;;9.71;68.66;94496.19;5036188;28;20633;-65
2022/04/24 02:11:22;;;;;;;8.98;6.72;;;;;;;9.75;68.36;94505.31;5036621;28;20187;-65
2022/04/24 02:13:53;;;;;;;9.63;6.60;;;;;;;9.74;68.50;94507.28;5036432;28;20186;-65
2022/04/24 02:16:19;;;;;;;8.25;6.38;;;;;;;9.75;68.54;94508.06;5036294;28;20531;-65
2022/04/24 02:18:48;;;;;;;7.80;6.55;;;;;;;9.75;68.28;94497.84;5036019;28;20633;-65
2022/04/24 02:21:17;;;;;;;7.18;6.38;;;;;;;9.78;68.29;94507.34;5036249;28;20191;-65
2022/04/24 02:23:45;;;;;;;8.63;6.32;;;;;;;9.73;68.80;94505.69;5029287;28;20269;-65
2022/04/24 02:26:13;;;;;;;10.27;6.05;;;;;;;9.67;68.23;94509.09;5015936;28;20214;-65
2022/04/24 02:28:41;;;;;;;7.43;6.03;;;;;;;9.53;67.85;94520.59;4999312;28;20210;-65
2022/04/24 02:31:11;;;;;;;6.93;5.78;;;;;;;9.48;68.41;94518.91;4999095;28;20257;-65
2022/04/24 02:33:42;;;;;;;7.13;5.72;;;;;;;9.47;68.49;94511.78;5015995;28;20206;-65
2022/04/24 02:36:09;;;;;;;6.65;5.80;;;;;;;9.37;68.66;94515.91;5015842;28;20529;-65
2022/04/24 02:38:35;;;;;;;5.93;5.32;;;;;;;9.34;68.80;94521.34;5015515;28;20209;-65
2022/04/24 02:41:03;;;;;;;7.90;5.82;;;;;;;9.35;68.55;94520.19;4999386;28;20199;-65
2022/04/24 02:43:31;;;;;;;7.40;5.30;;;;;;;9.38;68.75;94520.25;5015985;28;20191;-65
2022/04/24 02:46:00;;;;;;;6.38;5.75;;;;;;;9.37;68.60;94518.66;4998675;28;20223;-65
2022/04/24 02:48:33;;;;;;;6.97;5.45;;;;;;;9.35;68.78;94512.72;4999406;28;20209;-65
2022/04/24 02:51:03;;;;;;;6.63;5.78;;;;;;;9.33;68.52;94516.97;4998742;28;20203;-65
2022/04/24 02:53:31;;;;;;;6.85;6.07;;;;;;;9.31;68.62;94514.59;5015939;28;20289;-65
2022/04/24 02:55:58;;;;;;;7.88;6.05;;;;;;;9.32;68.95;94529.16;5015682;28;20197;-65
2022/04/24 02:58:26;;;;;;;9.73;6.40;;;;;;;9.30;69.44;94523.22;5015782;28;20218;-65
2022/04/24 03:00:56;;;;;;;10.05;6.38;;;;;;;9.30;69.45;94524.00;5014797;28;20200;-65
2022/04/24 03:03:24;;;;;;;9.18;6.63;;;;;;;9.34;69.62;94527.63;5015936;28;20197;-65
2022/04/24 03:05:54;;;;;;;8.43;6.50;;;;;;;9.37;69.27;94528.88;5015032;28;20245;-65
2022/04/24 03:08:24;;;;;;;7.63;6.47;;;;;;;9.39;68.88;94532.84;4998454;28;20214;-65
2022/04/24 03:10:52;;;;;;;7.45;6.15;;;;;;;9.39;68.77;94527.34;4997865;28;20222;-65
2022/04/24 03:13:19;;;;;;;7.90;5.78;;;;;;;9.42;69.37;94530.56;4998675;28;20206;-65
2022/04/24 03:15:47;;;;;;;7.85;5.93;;;;;;;9.43;69.32;94537.66;4998385;28;20195;-65
2022/04/24 03:18:18;;;;;;;7.68;6.43;;;;;;;9.40;68.50;94537.22;5015539;28;20222;-65
2022/04/24 03:20:46;;;;;;;6.65;5.65;;;;;;;9.36;69.19;94536.31;5014898;28;20202;-65
2022/04/24 03:23:17;;;;;;;7.75;6.05;;;;;;;9.36;69.82;94538.28;5017818;28;20185;-65
2022/04/24 03:25:46;;;;;;;7.13;6.03;;;;;;;9.38;69.30;94535.97;5034898;28;20213;-65
2022/04/24 03:28:13;;;;;;;6.82;5.47;;;;;;;9.38;69.36;94545.03;5017732;28;20202;-65
2022/04/24 03:30:41;;;;;;;9.45;6.60;;;;;;;9.40;69.47;94541.91;5018071;28;20202;-65
2022/04/24 03:33:09;;;;;;;6.80;6.10;;;;;;;9.43;69.52;94543.16;5035174;28;20196;-65
2022/04/24 03:35:35;;;;;;;8.60;6.28;;;;;;;9.43;69.13;94543.16;5018036;28;20194;-65
2022/04/24 03:38:03;;;;;;;10.52;7.07;;;;;;;9.31;69.20;94547.63;5034800;28;20206;-65
2022/04/24 03:40:35;;;;;;;13.20;6.60;;;;;;;9.21;68.86;94539.09;5033938;28;20198;-65
2022/04/24 03:43:03;;;;;;;8.35;6.30;;;;;;;9.10;68.53;94538.84;5035084;28;20198;-65
2022/04/24 03:45:34;;;;;;;7.93;6.80;;;;;;;8.99;68.98;94532.28;5034603;28;20616;-65
2022/04/24 03:48:00;;;;;;;8.35;6.18;;;;;;;8.92;68.83;94543.91;5034716;28;20633;-65
2022/04/24 03:50:27;;;;;;;8.57;6.13;;;;;;;8.92;68.96;94546.66;5017626;28;20206;-65
2022/04/24 03:52:56;;;;;;;7.65;6.57;;;;;;;8.90;69.35;94546.22;5017701;28;20203;-65
2022/04/24 03:55:25;;;;;;;9.60;6.07;;;;;;;8.92;69.77;94547.47;5017943;28;20198;-65
2022/04/24 03:57:53;;;;;;;7.75;6.47;;;;;;;8.98;69.50;94547.22;5034651;28;20183;-65
2022/04/24 04:00:24;;;;;;;9.02;7.88;;;;;;;8.94;69.60;94552.63;5034522;28;20191;-65
2022/04/24 04:02:53;;;;;;;10.45;8.32;;;;;;;8.90;69.68;94549.00;5017696;28;20264;-65
2022/04/24 04:05:22;;;;;;;10.40;8.30;;;;;;;8.86;69.90;94559.91;5034005;28;20199;-65
2022/04/24 04:07:50;;;;;;;11.55;8.98;;;;;;;8.93;70.27;94562.00;5033957;28;20241;-65
2022/04/24 04:10:18;;;;;;;10.50;8.68;;;;;;;8.99;69.94;94562.56;5034432;28;20510;-65
2022/04/24 04:12:45;;;;;;;10.32;8.20;;;;;;;8.99;70.65;94551.53;5019359;28;20202;-65
2022/04/24 04:15:14;;;;;;;11.18;8.25;;;;;;;9.03;70.80;94555.97;5038489;28;20178;-65
2022/04/24 04:17:44;;;;;;;10.60;8.73;;;;;;;9.07;71.10;94553.31;5021301;28;20210;-65
2022/04/24 04:20:12;;;;;;;10.57;8.00;;;;;;;9.16;70.98;94564.94;5038207;28;20199;-65
2022/04/24 04:22:51;;;;;;;10.68;7.55;;;;;;;9.23;71.05;94551.38;5021358;28;20216;-65
2022/04/24 04:25:19;;;;;;;8.25;7.35;;;;;;;9.29;70.73;94562.88;5020619;28;20242;-65
2022/04/24 04:27:47;;;;;;;10.85;7.72;;;;;;;9.34;70.94;94568.94;5021056;28;20214;-65
2022/04/24 04:30:20;;;;;;;11.00;7.53;;;;;;;9.42;70.64;94572.63;5020715;28;20198;-65
2022/04/24 04:32:50;;;;;;;9.15;7.40;;;;;;;9.51;71.13;94575.19;5020933;28;20205;-65
2022/04/24 04:35:22;;;;;;;9.38;7.80;;;;;;;9.51;70.75;94575.19;5020935;28;20241;-65
2022/04/24 04:37:50;;;;;;;8.73;7.82;;;;;;;9.50;71.37;94577.16;5021041;28;20297;-65
2022/04/24 04:40:20;;;;;;;9.50;8.35;;;;;;;9.52;71.29;94580.34;5020733;28;20221;-65
2022/04/24 04:42:49;;;;;;;13.23;8.85;;;;;;;9.65;71.07;94581.81;5037819;28;20210;-65
2022/04/24 04:45:19;;;;;;;13.45;10.88;;;;;;;9.78;70.63;94578.97;5020945;28;20229;-65
2022/04/24 04:47:48;;;;;;;12.82;11.10;;;;;;;9.80;70.72;94582.97;5037681;28;20248;-65
2022/04/24 04:50:16;;;;;;;14.68;12.50;;;;;;;9.82;70.65;94588.09;5020580;28;20684;-65
2022/04/24 04:52:45;;;;;;;13.80;12.52;;;;;;;9.83;71.07;94593.25;5019762;28;20547;-65
2022/04/24 04:55:13;;;;;;;13.35;12.05;;;;;;;9.85;71.56;94593.69;5009318;28;20616;-65
2022/04/24 04:57:41;;;;;;;12.32;11.13;;;;;;;9.89;71.17;94591.81;5017254;28;20199;-65
2022/04/24 05:00:11;;;;;;;12.55;11.18;;;;;;;9.96;71.29;94588.41;5017120;28;20625;-65
2022/04/24 05:02:45;;;;;;;11.40;10.27;;;;;;;10.03;71.10;94593.28;5016725;28;20210;-65
2022/04/24 05:05:15;;;;;;;11.02;9.65;;;;;;;10.08;71.98;94587.47;5017082;28;20209;-65
2022/04/24 05:07:43;;;;;;;10.25;8.88;;;;;;;10.12;71.56;94591.09;5034075;28;20214;-65
2022/04/24 05:10:10;;;;;;;9.18;7.70;;;;;;;10.15;71.98;94586.84;5037356;28;20183;-65
2022/04/24 05:12:38;;;;;;;11.18;7.93;;;;;;;10.16;71.61;94580.94;5037357;28;20194;-65
2022/04/24 05:15:08;;;;;;;8.27;6.63;;;;;;;10.21;71.85;94588.16;5020186;28;20204;-65
2022/04/24 05:17:36;;;;;;;8.32;6.70;;;;;;;10.25;71.24;94594.53;5037488;28;20195;-65
2022/04/24 05:20:10;;;;;;;9.10;7.22;;;;;;;10.30;72.37;94595.06;5037409;28;20183;-65
2022/04/24 05:22:39;;;;;;;10.75;9.65;;;;;;;10.36;71.51;94585.34;5037298;28;20253;-65
2022/04/24 05:25:09;;;;;;;12.93;11.40;;;;;;;10.49;70.94;94590.69;5018760;28;20269;-65
2022/04/24 05:27:37;;;;;;;10.68;9.38;;;;;;;10.63;70.51;94588.22;5037011;28;20650;-65
2022/04/24 05:30:05;;;;;;;10.63;9.63;;;;;;;10.71;69.79;94589.97;5019586;28;20260;-65
2022/04/24 05:32:39;;;;;;;12.10;10.30;;;;;;;10.80;69.52;94586.97;5019995;28;20208;-65
2022/04/24 05:35:13;;;;;;;11.95;10.60;;;;;;;10.86;69.46;94591.03;5020010;28;20202;-65
2022/04/24 05:37:41;;;;;;;10.10;9.00;;;;;;;10.94;69.47;94587.22;5036133;28;20531;-65
2022/04/24 05:40:09;;;;;;;9.60;8.70;;;;;;;11.02;69.19;94585.38;5019683;28;20209;-65
2022/04/24 05:42:45;;;;;;;9.45;8.55;;;;;;;11.09;68.33;94591.03;5019918;28;20682;-65
2022/04/24 05:45:14;;;;;;;8.48;7.68;;;;;;;11.14;68.16;94585.19;5019474;28;20202;-65
2022/04/24 05:47:46;;;;;;;9.07;7.75;;;;;;;11.23;68.01;94585.75;5019355;28;20233;-65
2022/04/24 05:50:19;;;;;;;9.57;8.02;;;;;;;11.26;67.67;94582.28;5035987;28;20201;-65
2022/04/24 05:52:47;;;;;;;8.45;7.60;;;;;;;11.31;67.69;94584.72;5019601;28;20210;-65
2022/04/24 05:55:14;;;;;;;8.85;7.45;;;;;;;11.40;67.04;94584.47;5019409;28;20203;-65
2022/04/24 05:57:42;;;;;;;9.82;7.40;;;;;;;11.41;66.53;94580.53;5019528;28;20285;-65
2022/04/24 06:00:11;;;;;;;9.00;8.10;;;;;;;11.41;66.96;94585.25;5019023;28;20298;-65
2022/04/24 06:02:39;;;;;;;8.63;7.53;;;;;;;11.38;67.46;94595.06;5019626;28;20205;-65
2022/04/24 06:05:07;;;;;;;9.15;8.20;;;;;;;11.38;67.58;94592.31;5019327;28;20206;-65
2022/04/24 06:07:36;;;;;;;8.68;7.88;;;;;;;11.42;67.65;94582.13;5019123;28;20214;-65
2022/04/24 06:10:03;;;;;;;11.55;8.13;;;;;;;11.52;67.37;94573.22;5019037;28;20202;-65
2022/04/24 06:12:30;;;;;;;9.10;8.30;;;;;;;11.57;67.13;94580.38;5018998;28;20284;-65
2022/04/24 06:15:05;;;;;;;9.15;8.00;;;;;;;11.64;67.15;94576.94;5036383;28;20202;-65
2022/04/24 06:17:33;;;;;;;10.10;9.10;;;;;;;11.75;66.76;94573.16;5019106;28;20198;-65
2022/04/24 06:20:00;;;;;;;10.35;8.48;;;;;;;11.80;66.00;94577.56;5035103;28;20554;-65
2022/04/24 06:22:27;;;;;;;10.50;8.57;;;;;;;11.81;65.87;94576.41;5019110;28;20203;-65
2022/04/24 06:24:56;;;;;;;9.20;8.30;;;;;;;11.82;66.11;94564.97;5018741;28;20231;-65
2022/04/24 06:27:27;;;;;;;9.45;8.32;;;;;;;11.85;66.08;94562.69;5018395;28;20218;-65
2022/04/24 06:29:56;;;;;;;9.55;8.25;;;;;;;11.90;65.58;94567.88;5018818;28;20198;-65
2022/04/24 06:32:29;;;;;;;9.68;7.88;;;;;;;11.98;65.95;94570.38;5018781;28;20209;-65
2022/04/24 06:34:57;;;;;;;9.38;8.02;;;;;;;12.00;65.67;94570.78;5018355;28;20206;-65
2022/04/24 06:37:25;;;;;;;10.80;8.70;;;;;;;12.05;65.23;94566.88;5019055;28;20281;-65
2022/04/24 06:39:53;;;;;;;11.23;7.88;;;;;;;12.12;64.85;94566.97;5035953;28;20250;-65
2022/04/24 06:42:22;;;;;;;8.57;7.57;;;;;;;12.20;64.44;94565.09;5035894;28;20187;-65
2022/04/24 06:44:51;;;;;;;8.55;7.45;;;;;;;12.25;64.38;94567.56;5035828;28;20190;-65
2022/04/24 06:47:19;;;;;;;10.02;7.60;;;;;;;12.29;64.10;94569.19;5035133;28;20226;-65
2022/04/24 06:49:46;;;;;;;9.65;8.30;;;;;;;12.38;64.90;94568.09;5018548;28;20200;-65
2022/04/24 06:52:14;;;;;;;9.63;8.75;;;;;;;12.43;64.34;94568.56;5035679;28;20244;-65
2022/04/24 06:54:44;;;;;;;11.18;9.65;;;;;;;12.48;64.64;94562.69;5018928;28;20212;-65
2022/04/24 06:57:12;;;;;;;12.07;9.52;;;;;;;12.59;64.72;94550.97;5018230;28;20201;-65
2022/04/24 06:59:42;;;;;;;11.00;10.00;;;;;;;12.69;64.32;94558.59;5035368;28;20190;-65
2022/04/24 07:02:09;;;;;;;10.60;9.35;;;;;;;12.76;64.20;94550.38;5018144;28;20194;-65
2022/04/24 07:04:36;;;;;;;10.43;8.65;;;;;;;12.82;64.04;94557.16;5018189;28;20218;-65
2022/04/24 07:07:05;;;;;;;9.07;8.13;;;;;;;12.92;64.23;94553.69;5035657;28;20207;-65
2022/04/24 07:09:33;;;;;;;9.77;8.18;;;;;;;12.99;63.75;94548.22;5035155;28;20214;-65
2022/04/24 07:12:01;;;;;;;8.63;7.40;;;;;;;13.06;63.91;94550.25;5035454;28;20190;-65
2022/04/24 07:14:30;;;;;;;7.88;6.93;;;;;;;13.12;62.89;94550.72;5035435;28;20201;-65
2022/04/24 07:16:59;;;;;;;7.55;6.28;;;;;;;13.18;62.87;94543.63;5018232;28;20206;-65
2022/04/24 07:19:27;;;;;;;8.07;6.10;;;;;;;13.28;61.76;94540.19;5018045;28;20198;-65
2022/04/24 07:21:56;;;;;;;6.28;5.30;;;;;;;13.31;60.61;94542.19;5018153;28;20203;-65
2022/04/24 07:24:27;;;;;;;6.47;4.90;;;;;;;13.37;61.13;94537.13;5022485;28;20234;-65
2022/04/24 07:26:54;;;;;;;8.02;5.45;;;;;;;13.44;61.51;94535.19;5015401;28;20221;-65
2022/04/24 07:29:22;;;;;;;6.75;5.22;;;;;;;13.52;61.64;94527.72;5015200;28;20191;-65
2022/04/24 07:31:51;;;;;;;6.28;5.70;;;;;;;13.62;62.04;94526.22;5031147;28;20199;-65
2022/04/24 07:34:20;;;;;;;7.47;6.45;;;;;;;13.69;61.11;94518.75;4998054;28;20210;-65
2022/04/24 07:36:50;;;;;;;8.60;6.05;;;;;;;13.78;60.93;94517.59;5030959;28;20202;-65
2022/04/24 07:39:17;;;;;;;8.50;6.30;;;;;;;13.84;60.58;94530.72;5015337;28;20183;-66
2022/04/24 07:41:46;;;;;;;7.50;6.22;;;;;;;13.90;59.76;94525.59;4997786;28;20206;-65
2022/04/24 07:44:13;;;;;;;7.82;5.70;;;;;;;13.97;59.71;94523.66;4997890;28;20547;-65
2022/04/24 07:46:41;;;;;;;4.95;4.35;;;;;;;14.09;60.06;94518.94;5014893;28;20270;-65
2022/04/24 07:49:08;;;;;;;4.28;3.65;;;;;;;14.20;59.12;94525.38;5002243;28;20198;-65
2022/04/24 07:51:38;;;;;;;6.03;4.40;;;;;;;14.27;58.72;94519.84;5002390;28;20195;-66
2022/04/24 07:54:05;;;;;;;4.80;4.30;;;;;;;14.33;57.62;94520.25;5018879;28;20252;-66
2022/04/24 07:56:33;;;;;;;6.57;3.97;;;;;;;14.44;58.08;94518.31;5001966;28;20198;-65
2022/04/24 07:59:01;;;;;;;7.88;4.57;;;;;;;14.51;56.71;94512.81;5018652;28;20199;-65
2022/04/24 08:01:30;;;;;;;7.32;4.70;;;;;;;14.58;56.99;94503.72;5034520;28;20211;-65
2022/04/24 08:03:56;;;;;;;5.65;4.90;;;;;;;14.79;58.44;94508.53;5019035;28;20179;-66
2022/04/24 08:06:27;;;;;;;7.35;5.25;;;;;;;14.96;57.67;94506.97;5019087;28;20187;-66
2022/04/24 08:08:56;;;;;;;6.47;5.20;;;;;;;15.07;57.06;94508.59;5001662;28;20214;-66
2022/04/24 08:11:23;;;;;;;6.15;4.85;;;;;;;15.31;58.11;94506.19;5034570;28;20194;-66
2022/04/24 08:13:52;;;;;;;4.63;3.80;;;;;;;15.52;54.74;94489.53;5001230;28;20290;-66
2022/04/24 08:16:23;;;;;;;5.70;4.07;;;;;;;15.65;56.65;94478.81;5018540;28;20282;-66
2022/04/24 08:18:54;;;;;;;6.10;4.10;;;;;;;15.81;55.32;94483.94;5001989;28;20250;-66
2022/04/24 08:21:22;;;;;;;6.35;4.35;;;;;;;15.93;55.12;94475.16;5001385;28;20286;-65
2022/04/24 08:23:50;;;;;;;5.00;4.50;;;;;;;16.04;54.81;94472.34;5024550;28;20325;-65
2022/04/24 08:26:20;;;;;;;4.78;4.22;;;;;;;16.08;54.70;94479.50;5037267;28;20201;-66
2022/04/24 08:28:48;;;;;;;5.20;4.05;;;;;;;16.16;54.51;94474.72;5021342;28;20215;-66
2022/04/24 08:31:16;;;;;;;6.53;3.72;;;;;;;16.29;54.52;94475.84;5038404;28;20182;-66
2022/04/24 08:33:43;;;;;;;6.47;3.47;;;;;;;16.45;54.04;94471.78;5020657;28;20210;-65
2022/04/24 08:36:10;;;;;;;3.80;3.17;;;;;;;16.50;54.26;94474.94;5020900;28;20230;-65
2022/04/24 08:38:37;;;;;;;3.83;2.95;;;;;;;16.53;53.72;94465.00;5037233;28;20212;-66
2022/04/24 08:41:05;;;;;;;3.63;3.33;;;;;;;16.57;52.31;94466.56;5020770;28;20208;-65
2022/04/24 08:43:34;;;;;;;3.33;2.70;;;;;;;16.66;51.77;94460.53;5021136;28;20195;-65
2022/04/24 08:46:02;;;;;;;4.93;3.00;;;;;;;16.80;52.82;94468.84;5020685;28;20209;-66
2022/04/24 08:48:29;;;;;;;6.18;3.22;;;;;;;17.06;54.05;94469.47;5020382;28;20325;-66
2022/04/24 08:51:00;;;;;;;6.93;3.53;;;;;;;17.22;51.52;94469.75;5020744;28;20195;-66
2022/04/24 08:53:30;;;;;;;3.38;2.85;;;;;;;17.28;51.70;94456.97;5037989;28;20194;-65
2022/04/24 08:55:57;;;;;;;6.53;3.65;;;;;;;17.38;52.11;94454.50;5036896;28;20206;-66
2022/04/24 08:58:26;;;;;;;4.35;3.05;;;;;;;17.53;51.52;94444.78;5037707;28;20191;-66
2022/04/24 09:00:56;;;;;;;4.07;3.10;;;;;;;17.63;50.05;94449.47;5037400;28;20209;-66
2022/04/24 09:03:25;;;;;;;4.80;3.20;;;;;;;17.80;49.11;94453.31;5020518;28;20537;-65
2022/04/24 09:05:53;;;;;;;6.13;3.40;;;;;;;17.80;49.44;94444.97;5037742;28;20194;-65
2022/04/24 09:08:27;;;;;;;4.15;3.25;;;;;;;17.94;51.31;94442.03;5020272;28;20670;-65
2022/04/24 09:10:58;;;;;;;4.70;3.15;;;;;;;18.04;50.06;94440.28;5037442;28;20183;-65
2022/04/24 09:13:32;;;;;;;3.85;2.90;;;;;;;18.17;50.68;94429.41;5020589;28;20195;-66
2022/04/24 09:16:03;;;;;;;4.13;2.78;;;;;;;18.26;49.81;94433.28;5037582;28;20273;-65
2022/04/24 09:18:46;;;;;;;4.95;3.15;;;;;;;18.35;48.43;94423.59;5037635;28;20187;-65
2022/04/24 09:21:14;;;;;;;5.10;2.90;;;;;;;18.51;48.27;94426.56;5020085;28;20293;-65
2022/04/24 09:23:43;;;;;;;5.68;3.00;;;;;;;18.50;46.21;94427.78;5031460;28;20239;-65
2022/04/24 09:26:17;;;;;;;3.80;2.63;;;;;;;18.48;47.75;94425.41;5000355;28;20203;-65
2022/04/24 09:28:46;;;;;;;3.80;3.00;;;;;;;18.55;46.14;94423.72;5000817;28;20237;-65
2022/04/24 09:31:16;;;;;;;6.40;3.10;;;;;;;18.75;49.05;94411.47;5017408;28;20202;-66
2022/04/24 09:33:44;;;;;;;4.57;2.85;;;;;;;18.98;47.03;94409.94;5000153;28;20206;-65
2022/04/24 09:36:13;;;;;;;6.97;2.45;;;;;;;19.03;45.55;94412.28;5017046;28;20187;-66
2022/04/24 09:38:45;;;;;;;3.78;2.40;;;;;;;18.97;43.92;94400.78;5000633;28;20583;-66
2022/04/24 09:41:16;;;;;;;3.38;2.50;;;;;;;19.10;47.88;94405.75;5000178;28;20213;-65
2022/04/24 09:43:45;;;;;;;4.00;2.40;;;;;;;19.27;44.38;94401.09;5000108;28;20195;-65
2022/04/24 09:46:15;;;;;;;4.05;2.30;;;;;;;19.35;44.90;94396.94;4999705;28;20206;-66
2022/04/24 09:48:52;;;;;;;5.65;2.58;;;;;;;19.54;43.94;94387.06;5000399;28;20286;-65
2022/04/24 09:51:20;;;;;;;2.45;1.95;;;;;;;19.69;44.35;94385.59;4999995;28;20318;-65
2022/04/24 09:53:48;;;;;;;2.88;2.20;;;;;;;19.86;43.23;94378.88;4999575;28;20250;-65
2022/04/24 09:56:18;;;;;;;4.57;2.15;;;;;;;19.93;41.60;94380.72;4999707;28;20202;-66
2022/04/24 09:58:46;;;;;;;2.30;2.00;;;;;;;19.90;41.75;94374.00;4999929;28;20257;-66
2022/04/24 10:01:17;;;;;;;4.20;2.00;;;;;;;20.01;42.46;94368.19;4999797;28;20194;-66
2022/04/24 10:03:48;;;;;;;5.38;2.50;;;;;;;20.03;42.91;94360.13;4999359;28;20530;-66
2022/04/24 10:06:22;;;;;;;3.75;2.50;;;;;;;20.12;43.91;94357.56;4992147;28;20226;-66
2022/04/24 10:08:50;;;;;;;3.65;2.30;;;;;;;19.99;42.08;94350.25;4999870;28;20221;-66
2022/04/24 10:11:21;;;;;;;6.65;2.83;;;;;;;20.05;42.95;94352.09;4999231;28;20215;-66
2022/04/24 10:13:53;;;;;;;4.03;2.55;;;;;;;20.22;43.00;94341.75;5016702;28;20249;-66
2022/04/24 10:16:53;;;;;;;3.00;2.70;;;;;;;20.36;43.34;94344.22;5016469;28;20207;-66
2022/04/24 10:19:39;;;;;;;3.83;2.50;;;;;;;20.67;44.95;94341.19;5008183;28;20630;-65
2022/04/24 10:22:08;;;;;;;3.05;2.72;;;;;;;20.66;42.88;94336.78;4999351;28;20199;-66
2022/04/24 10:24:43;;;;;;;3.15;2.25;;;;;;;20.70;41.65;94336.69;4992531;28;20243;-65
2022/04/24 10:27:12;;;;;;;4.07;2.50;;;;;;;20.68;44.18;94337.94;5027895;28;20209;-65
2022/04/24 10:29:52;;;;;;;4.15;2.67;;;;;;;20.68;42.45;94332.31;5018860;28;20303;-65
2022/04/24 10:32:28;;;;;;;3.50;2.40;;;;;;;20.81;43.34;94334.47;5035088;28;20213;-65
2022/04/24 10:34:56;;;;;;;4.47;2.53;;;;;;;20.91;42.83;94327.78;5035685;28;20193;-66
2022/04/24 10:37:36;;;;;;;3.03;2.72;;;;;;;20.97;41.38;94328.06;5035886;28;20194;-66
2022/04/24 10:40:04;;;;;;;4.07;2.63;;;;;;;21.11;40.94;94336.91;5035882;28;20208;-65
2022/04/24 10:42:34;;;;;;;3.08;2.60;;;;;;;21.30;42.58;94320.41;5017827;28;20247;-66
2022/04/24 10:45:08;;;;;;;2.65;2.10;;;;;;;21.32;40.31;94324.34;5035881;28;20197;-65
2022/04/24 10:47:53;;;;;;;3.88;2.50;;;;;;;21.31;39.97;94313.56;5035921;28;20256;-65
2022/04/24 10:50:23;;;;;;;3.13;2.30;;;;;;;21.51;40.45;94307.88;5035388;28;20187;-66
2022/04/24 10:52:55;;;;;;;3.90;2.50;;;;;;;21.53;39.19;94311.00;5035713;28;20187;-66
2022/04/24 10:55:25;;;;;;;4.50;2.50;;;;;;;21.66;41.06;94311.84;5035578;28;20186;-66
2022/04/24 10:57:55;;;;;;;4.50;2.60;;;;;;;21.78;41.28;94315.94;5018142;28;20195;-66
2022/04/24 11:00:28;;;;;;;3.17;2.25;;;;;;;21.91;39.90;94308.34;5018010;28;20213;-66
2022/04/24 11:03:09;;;;;;;4.53;2.60;;;;;;;21.98;40.07;94310.94;5035915;28;20269;-65
2022/04/24 11:05:41;;;;;;;4.03;2.72;;;;;;;22.08;40.71;94300.66;5035612;28;20197;-65
2022/04/24 11:08:17;;;;;;;3.97;2.70;;;;;;;22.12;40.35;94306.94;5034510;28;20218;-65
2022/04/24 11:10:47;;;;;;;4.97;2.85;;;;;;;22.08;40.13;94298.63;5034947;28;20202;-66
2022/04/24 11:13:18;;;;;;;3.55;2.38;;;;;;;22.14;39.65;94298.06;5035348;28;20212;-65
2022/04/24 11:15:47;;;;;;;3.55;2.78;;;;;;;22.19;41.02;94289.13;5018073;28;20242;-65
2022/04/24 11:18:21;;;;;;;3.67;2.70;;;;;;;22.22;39.07;94282.59;5034223;28;20203;-65
2022/04/24 11:20:58;;;;;;;2.92;2.45;;;;;;;22.14;38.13;94281.22;5034978;28;20186;-65
2022/04/24 11:23:30;;;;;;;3.58;2.55;;;;;;;22.16;39.88;94275.97;5034411;28;20226;-65
2022/04/24 11:26:02;;;;;;;5.40;2.55;;;;;;;22.32;39.27;94273.84;5017592;28;20191;-65
2022/04/24 11:28:41;;;;;;;3.78;2.10;;;;;;;22.29;38.59;94276.75;5034819;28;20210;-65
2022/04/24 11:31:14;;;;;;;3.20;2.58;;;;;;;22.49;37.46;94262.50;5034974;28;20249;-65
2022/04/24 11:33:54;;;;;;;5.60;3.67;;;;;;;22.52;37.51;94267.25;5035222;28;20187;-66
2022/04/24 11:36:27;;;;;;;5.13;2.83;;;;;;;22.57;36.51;94258.22;5017882;28;20204;-66
2022/04/24 11:38:54;;;;;;;3.38;2.40;;;;;;;22.63;36.61;94256.44;5017590;28;20206;-66
2022/04/24 11:41:24;;;;;;;4.47;3.10;;;;;;;22.80;38.45;94257.09;5017754;28;20619;-66
2022/04/24 11:44:00;;;;;;;2.58;2.22;;;;;;;22.95;37.52;94261.03;5017503;28;20240;-65